Time;durP1;ratioP1;P1;durP2;ratioP2;P2;SDS_P1;SDS_P2;PMS_P1;PMS_P2;Temp;Humidity;BMP_temperature;BMP_pressure;BME280_temperature;BME280_humidity;BME280_pressure;Samples;Min_cycle;Max_cycle;Signal;HPM_P1;HPM_P2
2022/08/20 00:01:40;;;;;;;;;;;;;;;18.31;76.96;96453.66;5076378;28;19966;-74
2022/08/20 00:04:07;;;;;;;;;;;;;;;18.28;77.13;96459.47;5076239;28;20480;-74
2022/08/20 00:06:33;;;;;;;;;;;;;;;18.24;77.20;96459.19;5076353;28;19961;-74
2022/08/20 00:08:58;;;;;;;;;;;;;;;18.23;77.56;96452.31;5076191;28;20384;-74
2022/08/20 00:11:26;;;;;;;;;;;;;;;18.16;78.01;96453.63;5076079;28;20414;-74
2022/08/20 00:13:54;;;;;;;;;;;;;;;18.14;77.70;96453.91;5076016;28;19985;-74
2022/08/20 00:16:21;;;;;;;;;;;;;;;18.14;77.56;96455.75;5076298;28;19969;-74
2022/08/20 00:18:48;;;;;;;;;;;;;;;18.14;77.86;96450.44;5076091;28;19983;-74
2022/08/20 00:21:15;;;;;;;;;;;;;;;18.13;78.03;96460.28;5076065;28;19973;-74
2022/08/20 00:23:42;;;;;;;;;;;;;;;18.13;78.14;96452.31;5075838;28;19958;-74
2022/08/20 00:26:09;;;;;;;;;;;;;;;18.15;78.17;96449.41;5075826;28;20394;-74
2022/08/20 00:28:36;;;;;;;;;;;;;;;18.16;78.12;96445.69;5076219;28;19956;-74
2022/08/20 00:31:04;;;;;;;;;;;;;;;18.18;78.07;96449.66;5076186;28;19978;-73
2022/08/20 00:33:30;;;;;;;;;;;;;;;18.18;78.12;96443.56;5074816;28;19953;-74
2022/08/20 00:35:56;;;;;;;;;;;;;;;18.20;78.86;96446.72;5076338;28;20330;-74
2022/08/20 00:38:25;;;;;;;;;;;;;;;18.20;78.45;96455.50;5075588;28;20045;-74
2022/08/20 00:40:53;;;;;;;;;;;;;;;18.21;78.75;96453.66;5075719;28;20437;-73
2022/08/20 00:43:25;;;;;;;;;;;;;;;18.24;78.79;96450.44;5075807;28;19993;-74
2022/08/20 00:45:54;;;;;;;;;;;;;;;18.24;79.18;96461.84;5076025;28;19958;-73
2022/08/20 00:48:20;;;;;;;;;;;;;;;18.24;79.24;96464.50;5075398;28;19967;-74
2022/08/20 00:50:47;;;;;;;;;;;;;;;18.26;80.37;96461.59;5075554;28;19972;-73
2022/08/20 00:53:13;;;;;;;;;;;;;;;18.28;79.40;96461.34;5075775;28;19959;-73
2022/08/20 00:55:40;;;;;;;;;;;;;;;18.28;79.74;96461.34;5075292;28;20324;-74
2022/08/20 00:58:08;;;;;;;;;;;;;;;18.29;79.95;96462.91;5074135;28;20320;-73
2022/08/20 01:00:37;;;;;;;;;;;;;;;18.31;79.43;96463.44;5075772;28;19970;-73
2022/08/20 01:03:08;;;;;;;;;;;;;;;18.33;79.88;96461.31;5075181;28;19956;-74
2022/08/20 01:05:35;;;;;;;;;;;;;;;18.33;79.85;96459.50;5075305;28;19970;-74
2022/08/20 01:08:01;;;;;;;;;;;;;;;18.34;79.88;96460.28;5075183;28;19960;-73
2022/08/20 01:10:30;;;;;;;;;;;;;;;18.36;79.58;96466.91;5074676;28;20024;-74
2022/08/20 01:12:57;;;;;;;;;;;;;;;18.37;80.04;96465.03;5075396;28;19967;-74
2022/08/20 01:15:25;;;;;;;;;;;;;;;18.39;80.01;96463.69;5075344;28;20316;-74
2022/08/20 01:17:57;;;;;;;;;;;;;;;18.39;80.18;96465.56;5075264;28;19960;-74
2022/08/20 01:20:25;;;;;;;;;;;;;;;18.39;79.74;96452.28;5074821;28;19975;-74
2022/08/20 01:25:41;;;;;;;;;;;;;;;18.41;80.55;96468.75;5074905;28;19962;-73
2022/08/20 01:28:09;;;;;;;;;;;;;;;18.43;80.31;96472.72;5074485;28;19966;-73
2022/08/20 01:30:35;;;;;;;;;;;;;;;18.44;80.37;96474.34;5074636;28;19961;-74
2022/08/20 01:33:01;;;;;;;;;;;;;;;18.45;80.15;96480.44;5074642;28;20425;-74
2022/08/20 01:35:27;;;;;;;;;;;;;;;18.45;79.60;96469.81;5074633;28;19995;-74
2022/08/20 01:37:53;;;;;;;;;;;;;;;18.46;79.57;96474.06;5074441;28;20346;-74
2022/08/20 01:40:26;;;;;;;;;;;;;;;18.45;79.95;96478.56;5074519;28;19967;-74
2022/08/20 01:42:52;;;;;;;;;;;;;;;18.47;80.54;96486.28;5074394;28;19959;-74
2022/08/20 01:45:18;;;;;;;;;;;;;;;18.45;79.38;96483.88;5075020;28;20013;-75
2022/08/20 01:47:44;;;;;;;;;;;;;;;18.46;78.92;96477.53;5074170;28;19970;-74
2022/08/20 01:50:21;;;;;;;;;;;;;;;18.48;80.05;96487.88;5074355;28;19955;-74
2022/08/20 01:52:50;;;;;;;;;;;;;;;18.49;79.62;96478.06;5074136;28;19986;-74
2022/08/20 01:55:16;;;;;;;;;;;;;;;18.50;79.63;96485.75;5074341;28;19961;-73
2022/08/20 01:57:42;;;;;;;;;;;;;;;18.52;79.48;96480.97;5073187;28;20370;-74
2022/08/20 02:00:12;;;;;;;;;;;;;;;18.55;79.97;96491.06;5073988;28;19958;-74
2022/08/20 02:02:39;;;;;;;;;;;;;;;18.59;80.09;96499.28;5074121;28;19968;-74
2022/08/20 02:05:05;;;;;;;;;;;;;;;18.58;79.58;96498.50;5056475;28;20416;-73
2022/08/20 02:07:31;;;;;;;;;;;;;;;18.58;79.83;96506.47;5073903;28;19962;-75
2022/08/20 02:09:57;;;;;;;;;;;;;;;18.61;79.70;96497.16;5074146;28;19964;-73
2022/08/20 02:12:23;;;;;;;;;;;;;;;18.60;79.88;96496.34;5073899;28;19980;-74
2022/08/20 02:14:50;;;;;;;;;;;;;;;18.62;79.67;96496.88;5074230;28;19992;-74
2022/08/20 02:17:18;;;;;;;;;;;;;;;18.62;80.08;96496.88;5073739;28;20310;-73
2022/08/20 02:19:51;;;;;;;;;;;;;;;18.62;79.76;96491.56;5074025;28;19974;-74
2022/08/20 02:22:23;;;;;;;;;;;;;;;18.62;80.15;96488.91;5073687;28;19954;-73
2022/08/20 02:24:50;;;;;;;;;;;;;;;18.62;80.92;96496.88;5073810;28;19959;-74
2022/08/20 02:27:17;;;;;;;;;;;;;;;18.62;80.10;96496.88;5072305;28;19957;-73
2022/08/20 02:29:43;;;;;;;;;;;;;;;18.61;80.15;96495.28;5073452;28;20407;-74
2022/08/20 02:32:10;;;;;;;;;;;;;;;18.62;79.83;96504.06;5074261;28;19966;-73
2022/08/20 02:34:35;;;;;;;;;;;;;;;18.60;79.88;96501.66;5073078;28;19969;-74
2022/08/20 02:37:02;;;;;;;;;;;;;;;18.62;80.04;96496.09;5073944;28;19957;-73
2022/08/20 02:39:28;;;;;;;;;;;;;;;18.63;79.41;96500.34;5073497;28;19965;-73
2022/08/20 02:41:54;;;;;;;;;;;;;;;18.63;79.78;96497.69;5073589;28;20039;-73
2022/08/20 02:44:20;;;;;;;;;;;;;;;18.62;80.41;96490.78;5072442;28;19966;-74
2022/08/20 02:46:48;;;;;;;;;;;;;;;18.60;80.45;96496.34;5073588;28;19972;-74
2022/08/20 02:49:16;;;;;;;;;;;;;;;18.59;80.40;96497.41;5073441;28;19966;-74
2022/08/20 02:51:42;;;;;;;;;;;;;;;18.58;80.06;96493.19;5073588;28;19968;-73
2022/08/20 02:54:08;;;;;;;;;;;;;;;18.58;79.98;96485.22;5073800;28;20101;-73
2022/08/20 02:56:34;;;;;;;;;;;;;;;18.59;80.29;96496.63;5074604;28;20031;-73
2022/08/20 02:59:00;;;;;;;;;;;;;;;18.57;80.22;96494.22;5077562;28;19957;-74
2022/08/20 03:01:26;;;;;;;;;;;;;;;18.56;80.00;96490.00;5077447;28;19961;-74
2022/08/20 03:03:55;;;;;;;;;;;;;;;18.54;80.27;96494.78;5077545;28;20334;-74
2022/08/20 03:06:22;;;;;;;;;;;;;;;18.54;80.37;96497.44;5077358;28;19960;-74
2022/08/20 03:08:49;;;;;;;;;;;;;;;18.51;80.47;96492.66;5078113;28;19969;-74
2022/08/20 03:11:15;;;;;;;;;;;;;;;18.49;80.17;96488.66;5077344;28;20337;-74
2022/08/20 03:13:41;;;;;;;;;;;;;;;18.46;80.33;96488.16;5077137;28;20415;-74
2022/08/20 03:16:07;;;;;;;;;;;;;;;18.44;80.75;96500.88;5077556;28;19960;-73
2022/08/20 03:18:35;;;;;;;;;;;;;;;18.44;80.76;96497.44;5077117;28;19974;-73
2022/08/20 03:21:02;;;;;;;;;;;;;;;18.42;81.08;96489.75;5077270;28;19971;-75
2022/08/20 03:23:28;;;;;;;;;;;;;;;18.40;80.99;96494.50;5077040;28;19963;-74
2022/08/20 03:25:54;;;;;;;;;;;;;;;18.38;80.65;96496.63;5077133;28;20442;-74
2022/08/20 03:28:20;;;;;;;;;;;;;;;18.39;80.62;96494.78;5076926;28;20439;-74
2022/08/20 03:30:46;;;;;;;;;;;;;;;18.38;81.08;96494.00;5077310;28;19975;-74
2022/08/20 03:33:12;;;;;;;;;;;;;;;18.38;80.90;96490.53;5077053;28;19982;-74
2022/08/20 03:35:38;;;;;;;;;;;;;;;18.37;81.02;96486.28;5076010;28;20434;-73
2022/08/20 03:38:06;;;;;;;;;;;;;;;18.35;81.24;96481.25;5076292;28;19996;-74
2022/08/20 03:40:33;;;;;;;;;;;;;;;18.33;81.36;96486.03;5076545;28;19960;-73
2022/08/20 03:42:59;;;;;;;;;;;;;;;18.28;82.03;96478.06;5076660;28;19955;-77
2022/08/20 03:45:25;;;;;;;;;;;;;;;18.24;81.40;96477.78;5076662;28;19960;-74
2022/08/20 03:47:52;;;;;;;;;;;;;;;18.23;81.30;96478.06;5076542;28;20543;-74
2022/08/20 03:50:19;;;;;;;;;;;;;;;18.20;81.78;96481.25;5076668;28;19975;-74
2022/08/20 03:52:45;;;;;;;;;;;;;;;18.17;81.56;96474.63;5076340;28;19972;-74
2022/08/20 03:55:12;;;;;;;;;;;;;;;18.13;82.19;96478.84;5077302;28;20008;-74
2022/08/20 03:57:45;;;;;;;;;;;;;;;18.13;82.17;96486.03;5076324;28;19963;-74
2022/08/20 04:00:13;;;;;;;;;;;;;;;18.13;82.47;96496.66;5076392;28;19969;-73
2022/08/20 04:02:39;;;;;;;;;;;;;;;18.11;82.04;96493.47;5076564;28;20321;-73
2022/08/20 04:05:05;;;;;;;;;;;;;;;18.10;82.61;96495.31;5076251;28;19966;-74
2022/08/20 04:07:31;;;;;;;;;;;;;;;18.09;82.39;96495.59;5076166;28;20425;-72
2022/08/20 04:09:58;;;;;;;;;;;;;;;18.09;82.26;96498.22;5076110;28;20033;-73
2022/08/20 04:12:24;;;;;;;;;;;;;;;18.08;82.45;96489.47;5076583;28;20425;-73
2022/08/20 04:14:51;;;;;;;;;;;;;;;18.09;82.98;96491.06;5076544;28;19989;-73
2022/08/20 04:17:18;;;;;;;;;;;;;;;18.09;82.77;96498.22;5075991;28;19968;-73
2022/08/20 04:19:44;;;;;;;;;;;;;;;18.10;82.69;96497.97;5075958;28;19965;-73
2022/08/20 04:22:13;;;;;;;;;;;;;;;18.11;82.94;96501.41;5075947;28;19968;-72
2022/08/20 04:24:41;;;;;;;;;;;;;;;18.12;82.74;96503.81;5076256;28;20404;-74
2022/08/20 04:27:08;;;;;;;;;;;;;;;18.13;83.33;96505.41;5060926;28;19961;-73
2022/08/20 04:29:35;;;;;;;;;;;;;;;18.14;83.49;96498.22;5075804;28;19973;-73
2022/08/20 04:32:03;;;;;;;;;;;;;;;18.14;83.13;96514.97;5075839;28;19986;-73
2022/08/20 04:34:29;;;;;;;;;;;;;;;18.16;83.05;96514.69;5074820;28;19967;-73
2022/08/20 04:36:55;;;;;;;;;;;;;;;18.15;83.17;96516.53;5075818;28;19972;-73
2022/08/20 04:39:21;;;;;;;;;;;;;;;18.15;83.81;96521.06;5075937;28;19976;-74
2022/08/20 04:41:47;;;;;;;;;;;;;;;18.13;83.34;96518.66;5076139;28;19960;-73
2022/08/20 04:44:12;;;;;;;;;;;;;;;18.13;83.17;96529.28;5075759;28;20001;-73
2022/08/20 04:46:39;;;;;;;;;;;;;;;18.12;82.89;96527.69;5074238;28;20334;-73
2022/08/20 04:49:05;;;;;;;;;;;;;;;18.12;83.19;96521.56;5075406;28;19978;-73
2022/08/20 04:51:32;;;;;;;;;;;;;;;18.10;83.70;96524.53;5075458;28;20343;-73
2022/08/20 04:53:59;;;;;;;;;;;;;;;18.07;84.00;96542.81;5075326;28;19973;-73
2022/08/20 04:56:28;;;;;;;;;;;;;;;18.04;83.42;96536.97;5075479;28;19965;-73
2022/08/20 04:58:55;;;;;;;;;;;;;;;18.04;83.33;96529.00;5075248;28;19971;-73
2022/08/20 05:01:22;;;;;;;;;;;;;;;18.02;83.59;96525.81;5075734;28;20427;-73
2022/08/20 05:03:48;;;;;;;;;;;;;;;18.03;83.35;96530.06;5075677;28;19959;-73
2022/08/20 05:06:16;;;;;;;;;;;;;;;18.02;83.52;96530.34;5075208;28;19962;-73
2022/08/20 05:08:42;;;;;;;;;;;;;;;18.02;83.18;96530.34;5075330;28;20324;-73
2022/08/20 05:11:08;;;;;;;;;;;;;;;18.03;83.42;96534.56;5075077;28;20031;-73
2022/08/20 05:13:34;;;;;;;;;;;;;;;18.04;83.63;96539.63;5074926;28;19982;-73
2022/08/20 05:16:02;;;;;;;;;;;;;;;18.05;83.46;96541.22;5075051;28;19969;-73
2022/08/20 05:18:31;;;;;;;;;;;;;;;18.08;83.38;96539.09;5075031;28;19952;-73
2022/08/20 05:21:03;;;;;;;;;;;;;;;18.10;83.79;96539.63;5074410;28;19973;-73
2022/08/20 05:23:29;;;;;;;;;;;;;;;18.12;83.45;96537.50;5074787;28;19964;-73
2022/08/20 05:25:56;;;;;;;;;;;;;;;18.16;83.44;96544.66;5074694;28;20326;-73
2022/08/20 05:28:25;;;;;;;;;;;;;;;18.22;83.69;96550.78;5074778;28;19964;-73
2022/08/20 05:30:51;;;;;;;;;;;;;;;18.27;83.36;96550.81;5074696;28;19965;-73
2022/08/20 05:33:18;;;;;;;;;;;;;;;18.35;83.87;96552.13;5074988;28;19983;-73
2022/08/20 05:35:46;;;;;;;;;;;;;;;18.38;83.09;96560.38;5075107;28;19964;-73
2022/08/20 05:38:12;;;;;;;;;;;;;;;18.41;82.91;96559.81;5074679;28;19966;-73
2022/08/20 05:40:39;;;;;;;;;;;;;;;18.43;82.22;96565.66;5074535;28;19975;-73
2022/08/20 05:43:05;;;;;;;;;;;;;;;18.49;82.84;96565.69;5074265;28;19961;-73
2022/08/20 05:45:32;;;;;;;;;;;;;;;18.60;82.88;96564.59;5074339;28;19969;-73
2022/08/20 05:48:02;;;;;;;;;;;;;;;18.92;81.25;96560.88;5064776;28;19958;-73
2022/08/20 05:50:28;;;;;;;;;;;;;;;19.01;80.27;96552.13;5074015;28;20343;-73
2022/08/20 05:52:54;;;;;;;;;;;;;;;19.13;80.11;96557.16;5074304;28;19977;-73
2022/08/20 05:55:20;;;;;;;;;;;;;;;19.09;79.90;96555.28;5074271;28;20378;-73
2022/08/20 05:57:46;;;;;;;;;;;;;;;18.99;79.83;96567.53;5074150;28;20409;-73
2022/08/20 06:00:13;;;;;;;;;;;;;;;18.93;81.10;96565.94;5074772;28;20019;-73
2022/08/20 06:05:23;;;;;;;;;;;;;;;18.87;80.79;96564.34;5074012;28;19959;-73
2022/08/20 06:07:49;;;;;;;;;;;;;;;18.86;80.89;96566.22;5072836;28;19976;-73
2022/08/20 06:10:16;;;;;;;;;;;;;;;18.86;81.66;96563.56;5073890;28;19951;-73
2022/08/20 06:12:44;;;;;;;;;;;;;;;18.86;82.10;96565.44;5073889;28;19971;-74
2022/08/20 06:15:11;;;;;;;;;;;;;;;18.82;81.11;96559.84;5074418;28;19990;-73
2022/08/20 06:17:37;;;;;;;;;;;;;;;18.81;81.39;96562.78;5074186;28;20435;-73
2022/08/20 06:20:05;;;;;;;;;;;;;;;18.79;81.36;96565.72;5073689;28;20330;-74
2022/08/20 06:22:32;;;;;;;;;;;;;;;18.78;81.65;96561.44;5073935;28;19955;-74
2022/08/20 06:24:57;;;;;;;;;;;;;;;18.77;81.53;96559.03;5074472;28;20404;-73
2022/08/20 06:27:25;;;;;;;;;;;;;;;18.75;81.52;96561.16;5073933;28;19972;-73
2022/08/20 06:29:52;;;;;;;;;;;;;;;18.76;82.31;96563.53;5073807;28;20335;-73
2022/08/20 06:32:19;;;;;;;;;;;;;;;18.76;82.00;96571.50;5072682;28;19988;-74
2022/08/20 06:34:45;;;;;;;;;;;;;;;18.76;81.94;96571.50;5073305;28;19969;-73
2022/08/20 06:37:15;;;;;;;;;;;;;;;18.79;82.29;96581.66;5073855;28;20006;-74
2022/08/20 06:39:41;;;;;;;;;;;;;;;18.84;82.41;96576.31;5073605;28;19962;-73
2022/08/20 06:42:07;;;;;;;;;;;;;;;18.92;82.13;96575.00;5073653;28;20419;-73
2022/08/20 06:44:33;;;;;;;;;;;;;;;18.98;83.38;96573.94;5073999;28;20043;-73
2022/08/20 06:46:59;;;;;;;;;;;;;;;19.04;84.44;96572.81;5073384;28;20000;-73
2022/08/20 06:49:25;;;;;;;;;;;;;;;19.04;83.02;96570.16;5073864;28;19970;-73
2022/08/20 06:51:51;;;;;;;;;;;;;;;19.02;84.12;96574.16;5073304;28;20013;-73
2022/08/20 06:54:17;;;;;;;;;;;;;;;19.02;84.51;96575.00;5073502;28;20018;-73
2022/08/20 06:56:43;;;;;;;;;;;;;;;19.04;83.10;96572.81;5073337;28;20022;-74
2022/08/20 06:59:09;;;;;;;;;;;;;;;19.00;83.69;96569.13;5073450;28;20391;-73
2022/08/20 07:01:35;;;;;;;;;;;;;;;19.01;85.46;96569.94;5073308;28;20015;-74
2022/08/20 07:04:01;;;;;;;;;;;;;;;19.02;86.17;96569.66;5073433;28;19963;-73
2022/08/20 07:06:27;;;;;;;;;;;;;;;19.04;86.21;96562.19;5073721;28;20061;-75
2022/08/20 07:08:54;;;;;;;;;;;;;;;19.06;85.84;96567.25;5060845;28;19958;-73
2022/08/20 07:11:20;;;;;;;;;;;;;;;19.08;85.24;96557.16;5073250;28;19974;-74
2022/08/20 07:13:47;;;;;;;;;;;;;;;19.15;85.33;96560.34;5072990;28;19980;-73
2022/08/20 07:16:14;;;;;;;;;;;;;;;19.19;84.16;96568.53;5074058;28;19980;-73
2022/08/20 07:18:40;;;;;;;;;;;;;;;19.23;84.92;96575.75;5073279;28;20018;-73
2022/08/20 07:21:06;;;;;;;;;;;;;;;19.25;84.32;96570.13;5073523;28;20043;-74
2022/08/20 07:23:32;;;;;;;;;;;;;;;19.32;85.07;96570.66;5073084;28;20014;-73
2022/08/20 07:25:58;;;;;;;;;;;;;;;19.40;84.38;96575.41;5073860;28;20059;-73
2022/08/20 07:28:27;;;;;;;;;;;;;;;19.48;84.40;96577.50;5073385;28;19966;-73
2022/08/20 07:33:39;;;;;;;;;;;;;;;19.67;82.63;96580.38;5073136;28;19980;-74
2022/08/20 07:36:05;;;;;;;;;;;;;;;19.74;82.43;96574.78;5073133;28;20447;-73
2022/08/20 07:38:32;;;;;;;;;;;;;;;19.84;81.00;96574.75;5072948;28;20345;-73
2022/08/20 07:41:00;;;;;;;;;;;;;;;19.90;81.91;96586.13;5072972;28;19954;-73
2022/08/20 07:43:27;;;;;;;;;;;;;;;19.95;80.97;96583.47;5063471;28;20325;-74
2022/08/20 07:45:56;;;;;;;;;;;;;;;19.96;80.39;96585.03;5076623;28;20414;-73
2022/08/20 07:48:27;;;;;;;;;;;;;;;20.01;82.18;96592.19;5076891;28;19967;-74
2022/08/20 07:50:54;;;;;;;;;;;;;;;20.01;79.66;96594.88;5077100;28;19965;-73
2022/08/20 07:53:20;;;;;;;;;;;;;;;20.03;79.52;96590.88;5076521;28;19975;-73
2022/08/20 07:55:46;;;;;;;;;;;;;;;20.06;80.66;96598.31;5076907;28;19964;-74
2022/08/20 07:58:14;;;;;;;;;;;;;;;20.07;80.58;96594.59;5075365;28;19970;-73
2022/08/20 08:00:40;;;;;;;;;;;;;;;20.07;80.05;96597.25;5076370;28;19970;-73
2022/08/20 08:03:06;;;;;;;;;;;;;;;20.05;79.87;96598.56;5076439;28;20025;-73
2022/08/20 08:05:34;;;;;;;;;;;;;;;20.05;79.94;96593.25;5076507;28;20479;-73
2022/08/20 08:08:01;;;;;;;;;;;;;;;20.08;80.71;96593.50;5076254;28;20028;-74
2022/08/20 08:10:27;;;;;;;;;;;;;;;20.16;80.88;96592.13;5076449;28;19969;-73
2022/08/20 08:12:54;;;;;;;;;;;;;;;20.24;79.99;96588.88;5076218;28;19970;-73
2022/08/20 08:15:22;;;;;;;;;;;;;;;20.30;78.58;96586.97;5075749;28;19980;-73
2022/08/20 08:17:48;;;;;;;;;;;;;;;20.38;77.93;96588.25;5076458;28;19971;-73
2022/08/20 08:20:15;;;;;;;;;;;;;;;20.47;78.93;96589.25;5075952;28;19959;-73
2022/08/20 08:22:44;;;;;;;;;;;;;;;20.57;78.88;96581.19;5076064;28;19957;-73
2022/08/20 08:25:11;;;;;;;;;;;;;;;20.66;76.41;96581.41;5075588;28;19966;-74
2022/08/20 08:27:38;;;;;;;;;;;;;;;20.75;77.57;96586.97;5075989;28;19972;-74
2022/08/20 08:30:04;;;;;;;;;;;;;;;20.88;76.66;96586.31;5075808;28;19992;-73
2022/08/20 08:32:31;;;;;;;;;;;;;;;20.97;76.47;96589.94;5076118;28;19990;-73
2022/08/20 08:34:57;;;;;;;;;;;;;;;21.06;76.22;96580.28;5074882;28;20326;-73
2022/08/20 08:37:23;;;;;;;;;;;;;;;21.19;76.22;96580.69;5075631;28;19976;-74
2022/08/20 08:39:49;;;;;;;;;;;;;;;21.28;75.42;96582.44;5075767;28;19962;-73
2022/08/20 08:42:33;;;;;;;;;;;;;;;21.36;74.81;96577.56;5075550;28;19965;-74
2022/08/20 08:44:59;;;;;;;;;;;;;;;21.37;74.96;96574.59;5076105;28;20324;-74
2022/08/20 08:47:30;;;;;;;;;;;;;;;21.42;74.84;96581.81;5075403;28;19968;-73
2022/08/20 08:49:56;;;;;;;;;;;;;;;21.42;74.32;96571.13;5075482;28;19975;-74
2022/08/20 08:52:25;;;;;;;;;;;;;;;21.38;73.95;96573.53;5075445;28;19983;-74
2022/08/20 08:54:52;;;;;;;;;;;;;;;21.32;73.31;96582.66;5074750;28;19958;-74
2022/08/20 08:57:18;;;;;;;;;;;;;;;21.25;73.84;96590.19;5075639;28;19981;-73
2022/08/20 08:59:54;;;;;;;;;;;;;;;21.26;75.52;96599.81;5075218;28;20317;-73
2022/08/20 09:02:21;;;;;;;;;;;;;;;21.32;75.42;96593.34;5076014;28;19964;-73
2022/08/20 09:04:50;;;;;;;;;;;;;;;21.38;73.57;96578.06;5075278;28;19964;-73
2022/08/20 09:07:16;;;;;;;;;;;;;;;21.43;74.04;96583.38;5074640;28;19966;-73
2022/08/20 09:09:45;;;;;;;;;;;;;;;21.50;74.96;96583.81;5075191;28;19970;-73
2022/08/20 09:12:18;;;;;;;;;;;;;;;21.64;74.29;96578.59;5074977;28;19964;-73
2022/08/20 09:14:49;;;;;;;;;;;;;;;21.73;71.91;96557.41;5075044;28;19992;-73
2022/08/20 09:17:15;;;;;;;;;;;;;;;21.77;71.77;96567.22;5075514;28;19968;-74
2022/08/20 09:19:41;;;;;;;;;;;;;;;21.77;71.57;96566.44;5075180;28;19962;-73
2022/08/20 09:22:08;;;;;;;;;;;;;;;21.79;72.63;96574.94;5074591;28;20438;-73
2022/08/20 09:24:34;;;;;;;;;;;;;;;21.85;72.12;96571.13;5074859;28;19964;-73
2022/08/20 09:27:00;;;;;;;;;;;;;;;21.90;68.88;96560.38;5074624;28;19957;-73
2022/08/20 09:29:26;;;;;;;;;;;;;;;21.92;70.34;96560.09;5074884;28;20017;-73
2022/08/20 09:32:02;;;;;;;;;;;;;;;21.94;69.24;96544.56;5075016;28;20013;-73
2022/08/20 09:34:28;;;;;;;;;;;;;;;21.97;68.61;96549.34;5074999;28;19982;-74
2022/08/20 09:36:54;;;;;;;;;;;;;;;21.99;69.36;96552.53;5075018;28;19972;-73
2022/08/20 09:39:20;;;;;;;;;;;;;;;22.00;68.61;96548.75;5074458;28;19971;-74
2022/08/20 09:41:45;;;;;;;;;;;;;;;22.00;68.34;96543.41;5074688;28;19967;-73
2022/08/20 09:44:11;;;;;;;;;;;;;;;22.02;67.48;96538.59;5074547;28;20441;-73
2022/08/20 09:46:37;;;;;;;;;;;;;;;22.08;68.74;96543.56;5074923;28;20499;-73
2022/08/20 09:49:03;;;;;;;;;;;;;;;22.22;67.09;96534.84;5073011;28;20412;-74
2022/08/20 09:51:29;;;;;;;;;;;;;;;22.34;66.44;96526.38;5072973;28;19978;-73
2022/08/20 09:53:55;;;;;;;;;;;;;;;22.48;66.38;96541.38;5074250;28;20471;-74
2022/08/20 09:56:21;;;;;;;;;;;;;;;22.69;65.78;96533.03;5074120;28;19965;-74
2022/08/20 09:58:49;;;;;;;;;;;;;;;22.84;66.01;96522.06;5074123;28;19969;-74
2022/08/20 10:01:16;;;;;;;;;;;;;;;22.92;65.35;96535.84;5074468;28;19961;-73
2022/08/20 10:03:43;;;;;;;;;;;;;;;23.03;66.54;96530.03;5074283;28;20322;-74
2022/08/20 10:06:10;;;;;;;;;;;;;;;23.25;64.18;96509.84;5074095;28;19976;-73
2022/08/20 10:08:37;;;;;;;;;;;;;;;23.36;62.68;96508.56;5074385;28;19973;-74
2022/08/20 10:11:03;;;;;;;;;;;;;;;23.37;62.29;96506.66;5073829;28;19965;-74
2022/08/20 10:13:29;;;;;;;;;;;;;;;23.26;61.93;96506.84;5073473;28;19976;-74
2022/08/20 10:15:55;;;;;;;;;;;;;;;23.12;63.13;96516.78;5074024;28;19964;-74
2022/08/20 10:18:21;;;;;;;;;;;;;;;22.96;60.95;96504.75;5074272;28;19965;-74
2022/08/20 10:20:47;;;;;;;;;;;;;;;22.83;63.76;96535.75;5062322;28;20347;-74
2022/08/20 10:23:13;;;;;;;;;;;;;;;22.69;63.01;96528.47;5073866;28;20340;-74
2022/08/20 10:25:40;;;;;;;;;;;;;;;22.58;64.30;96545.00;5073679;28;19962;-73
2022/08/20 10:28:06;;;;;;;;;;;;;;;22.53;64.60;96540.50;5071794;28;20054;-74
2022/08/20 10:30:32;;;;;;;;;;;;;;;22.42;65.22;96558.56;5072656;28;19975;-74
2022/08/20 10:32:58;;;;;;;;;;;;;;;22.32;64.69;96556.06;5074240;28;19990;-73
2022/08/20 10:35:24;;;;;;;;;;;;;;;22.22;65.97;96556.22;5072290;28;20002;-73
2022/08/20 10:37:50;;;;;;;;;;;;;;;22.10;66.00;96561.97;5071786;28;19973;-74
2022/08/20 10:40:16;;;;;;;;;;;;;;;21.88;66.75;96570.53;5064518;28;19974;-81
2022/08/20 10:42:43;;;;;;;;;;;;;;;21.72;66.91;96567.28;5068898;28;19969;-74
2022/08/20 10:45:14;;;;;;;;;;;;;;;21.55;67.22;96577.66;5073092;28;20352;-74
2022/08/20 10:47:40;;;;;;;;;;;;;;;21.45;68.48;96590.00;5073889;28;19960;-74
2022/08/20 10:50:08;;;;;;;;;;;;;;;21.44;68.77;96584.94;5073432;28;19972;-74
2022/08/20 10:52:33;;;;;;;;;;;;;;;21.44;68.98;96601.78;5073673;28;19964;-74
2022/08/20 10:54:59;;;;;;;;;;;;;;;21.46;69.03;96588.13;5073833;28;19959;-73
2022/08/20 10:57:27;;;;;;;;;;;;;;;21.44;68.68;96599.09;5072958;28;19971;-73
2022/08/20 10:59:54;;;;;;;;;;;;;;;21.36;69.07;96594.38;5072267;28;19966;-73
2022/08/20 11:02:21;;;;;;;;;;;;;;;21.31;69.30;96602.41;5073248;28;19968;-73
2022/08/20 11:04:47;;;;;;;;;;;;;;;21.25;69.19;96592.84;5073700;28;19965;-73
2022/08/20 11:07:15;;;;;;;;;;;;;;;21.25;69.63;96601.69;5073930;28;19964;-73
2022/08/20 11:09:42;;;;;;;;;;;;;;;21.28;70.19;96600.31;5072427;28;19969;-74
2022/08/20 11:12:08;;;;;;;;;;;;;;;21.29;70.23;96607.22;5070045;28;19968;-73
2022/08/20 11:14:34;;;;;;;;;;;;;;;21.24;70.19;96607.28;5067503;28;19996;-74
2022/08/20 11:17:01;;;;;;;;;;;;;;;21.20;70.75;96619.59;5058961;28;19971;-75
2022/08/20 11:19:26;;;;;;;;;;;;;;;21.25;71.78;96620.34;5072926;28;19980;-74
2022/08/20 11:21:52;;;;;;;;;;;;;;;21.27;71.12;96620.88;5073325;28;19960;-74
2022/08/20 11:24:18;;;;;;;;;;;;;;;21.29;71.40;96609.88;5076847;28;20082;-74
2022/08/20 11:26:46;;;;;;;;;;;;;;;21.28;70.89;96619.78;5076783;28;19970;-74
2022/08/20 11:29:12;;;;;;;;;;;;;;;21.25;71.28;96615.00;5076968;28;19967;-73
2022/08/20 11:31:38;;;;;;;;;;;;;;;21.26;71.58;96621.94;5076736;28;19968;-73
2022/08/20 11:34:04;;;;;;;;;;;;;;;21.20;71.12;96623.06;5077380;28;19979;-73
2022/08/20 11:36:31;;;;;;;;;;;;;;;21.12;71.20;96626.31;5076833;28;19983;-73
2022/08/20 11:38:56;;;;;;;;;;;;;;;21.09;71.52;96626.91;5076763;28;20003;-73
2022/08/20 11:41:22;;;;;;;;;;;;;;;21.04;70.93;96619.75;5076681;28;19966;-74
2022/08/20 11:43:48;;;;;;;;;;;;;;;20.89;72.26;96619.88;5076780;28;20375;-75
2022/08/20 11:46:14;;;;;;;;;;;;;;;20.70;73.00;96617.09;5076967;28;20012;-75
2022/08/20 11:48:40;;;;;;;;;;;;;;;20.58;73.68;96621.97;5077006;28;19958;-75
2022/08/20 11:51:06;;;;;;;;;;;;;;;20.52;76.31;96613.22;5076557;28;20032;-77
2022/08/20 11:53:32;;;;;;;;;;;;;;;20.54;75.58;96602.28;5076720;28;19986;-76
2022/08/20 11:55:58;;;;;;;;;;;;;;;20.53;76.60;96604.13;5076607;28;20406;-77
2022/08/20 11:58:24;;;;;;;;;;;;;;;20.50;77.44;96609.22;5076504;28;20346;-75
2022/08/20 12:00:50;;;;;;;;;;;;;;;20.54;77.90;96611.06;5076671;28;20045;-76
2022/08/20 12:03:16;;;;;;;;;;;;;;;20.66;78.39;96610.72;5076315;28;20063;-76
2022/08/20 12:05:43;;;;;;;;;;;;;;;20.78;77.03;96607.72;5075119;28;19976;-76
2022/08/20 12:08:09;;;;;;;;;;;;;;;20.91;80.35;96615.03;5076199;28;19974;-76
2022/08/20 12:10:36;;;;;;;;;;;;;;;21.02;79.19;96618.41;5063503;28;19968;-76
2022/08/20 12:13:02;;;;;;;;;;;;;;;21.09;78.88;96614.34;5075942;28;19986;-76
2022/08/20 12:15:27;;;;;;;;;;;;;;;21.23;79.27;96616.34;5076731;28;19998;-75
2022/08/20 12:17:54;;;;;;;;;;;;;;;21.34;78.52;96609.06;5076365;28;20065;-75
2022/08/20 12:20:20;;;;;;;;;;;;;;;21.46;77.86;96606.81;5076007;28;19967;-75
2022/08/20 12:22:46;;;;;;;;;;;;;;;21.59;77.22;96608.03;5075707;28;19963;-75
2022/08/20 12:25:12;;;;;;;;;;;;;;;21.65;75.27;96602.34;5075044;28;20312;-75
2022/08/20 12:27:39;;;;;;;;;;;;;;;21.71;76.70;96604.94;5075949;28;19968;-75
2022/08/20 12:30:06;;;;;;;;;;;;;;;21.71;76.42;96602.25;5074952;28;20364;-75
2022/08/20 12:32:34;;;;;;;;;;;;;;;21.85;74.98;96597.81;5075875;28;19971;-76
2022/08/20 12:35:00;;;;;;;;;;;;;;;22.20;71.91;96596.56;5075767;28;19984;-74
2022/08/20 12:37:28;;;;;;;;;;;;;;;22.52;73.71;96602.28;5076118;28;19992;-74
2022/08/20 12:39:55;;;;;;;;;;;;;;;22.77;68.86;96572.47;5075801;28;19966;-74
2022/08/20 12:42:21;;;;;;;;;;;;;;;22.85;68.55;96577.13;5075802;28;19970;-74
2022/08/20 12:44:47;;;;;;;;;;;;;;;23.01;65.29;96553.63;5076101;28;19973;-74
2022/08/20 12:47:13;;;;;;;;;;;;;;;23.33;66.96;96564.53;5075504;28;19979;-74
2022/08/20 12:49:41;;;;;;;;;;;;;;;23.51;63.18;96520.81;5075981;28;20100;-74
2022/08/20 12:52:07;;;;;;;;;;;;;;;23.74;66.15;96556.50;5075300;28;19973;-74
2022/08/20 12:54:34;;;;;;;;;;;;;;;24.01;61.96;96515.50;5075507;28;19987;-74